PAPO

Details ICAO PAPO
Name POINT HOPE
Region USA (Alaska)
Timezone America/Nome (UTC-9.0)
Plans Departing 1
Arriving 4
Stats Elevation 12 ft / 4 m (AMSL)
Location 68.348835° -166.799347°
Runways 1
Magnetic Variation 9.491° E
Sunrise Unknown / Unknown
Sunset Unknown / Unknown
Advertisement - Login to hide

Runways

ID Width Length Bearing (true) Bearing (mag) Surface Threshold Offset Overrun Length
01 75 ft / 23 m 3,988 ft / 1,216 m 22.27° 12.78° Asphalt 0 ft / 0 m 0 ft / 0 m
19 75 ft / 23 m 3,988 ft / 1,216 m 202.28° 192.79° Asphalt 0 ft / 0 m 0 ft / 0 m

Map

Weather


0- 5 10 15 20 25 30 35+ Temperature / ° C

Clouds and Precipitation
Forecast for 2017-12-14 06:00 UTC. Updated an hour ago

Ground ~20,000 ft ~40,000 ft Winds

METAR

PAPO 140156Z AUTO 08015KT 10SM CLR 01/M01 A2950 RMK AO2 UPB37E48 SLP988 P0000 T00061011 FZRANO

TAF

Not found

Frequencies

Recorded 118.32 MHz AWOS 3
Unicom 122.80 MHz CTAF
Warning: Do not use this data for real-world aviation or navigation. No guarantee of current accuracy is given.